Time;durP1;ratioP1;P1;durP2;ratioP2;P2;SDS_P1;SDS_P2;PMS_P1;PMS_P2;Temp;Humidity;BMP_temperature;BMP_pressure;BME280_temperature;BME280_humidity;BME280_pressure;Samples;Min_cycle;Max_cycle;Signal;HPM_P1;HPM_P2
2021/05/13 00:00:09;;;;;;;0.80;0.68;;;;;;;34.96;30.46;160386.03;1620552;88;21842;-85
2021/05/13 00:02:43;;;;;;;1.12;1.00;;;;;;;34.89;30.56;160367.34;1621280;88;21295;-86
2021/05/13 00:05:17;;;;;;;0.93;0.80;;;;;;;34.90;30.56;160369.97;1621186;87;21857;-85
2021/05/13 00:07:49;;;;;;;1.32;0.72;;;;;;;34.91;30.54;160374.02;1621216;87;21271;-85
2021/05/13 00:10:23;;;;;;;0.70;0.65;;;;;;;34.81;30.63;160347.28;1621359;88;21458;-85
2021/05/13 00:12:59;;;;;;;1.25;0.80;;;;;;;34.84;30.65;160355.27;1621467;88;21195;-84
2021/05/13 00:15:33;;;;;;;1.65;0.93;;;;;;;34.87;30.69;160361.98;1621404;87;21418;-85
2021/05/13 00:18:06;;;;;;;1.92;0.85;;;;;;;34.86;30.66;160359.31;1621735;87;21856;-85
2021/05/13 00:20:42;;;;;;;2.30;1.07;;;;;;;34.73;30.74;160324.55;1603782;88;21376;-85
2021/05/13 00:23:15;;;;;;;0.70;0.70;;;;;;;34.69;30.79;160315.20;1632373;88;21412;-85
2021/05/13 00:25:49;;;;;;;1.25;0.75;;;;;;;34.70;30.78;160317.88;1603694;89;21368;-86
2021/05/13 00:28:21;;;;;;;1.95;1.25;;;;;;;34.71;30.78;160319.19;1622485;88;21187;-87
2021/05/13 00:30:54;;;;;;;2.20;1.27;;;;;;;34.72;30.77;160323.17;1603872;89;21429;-85
2021/05/13 00:33:26;;;;;;;0.80;0.80;;;;;;;34.66;30.81;160307.16;1621521;88;21215;-85
2021/05/13 00:35:58;;;;;;;1.10;0.85;;;;;;;34.76;30.77;160332.58;1621286;88;21226;-85
2021/05/13 00:38:31;;;;;;;0.90;0.88;;;;;;;34.71;30.82;160319.19;1621251;87;21337;-85
2021/05/13 00:41:03;;;;;;;1.55;1.10;;;;;;;34.72;30.82;160323.17;1621259;88;21344;-85
2021/05/13 00:43:35;;;;;;;1.40;1.30;;;;;;;34.71;30.87;160319.19;1621546;88;21249;-84
2021/05/13 00:46:08;;;;;;;3.02;1.00;;;;;;;34.61;30.96;160293.78;1621308;88;21375;-85
2021/05/13 00:48:41;;;;;;;2.10;1.10;;;;;;;34.69;30.91;160315.20;1625892;88;21364;-85
2021/05/13 00:51:14;;;;;;;1.17;1.07;;;;;;;34.60;31.00;160291.16;1629808;87;21221;-85
2021/05/13 00:53:48;;;;;;;1.35;1.10;;;;;;;34.59;31.01;160287.11;1630136;88;21364;-87
2021/05/13 00:56:20;;;;;;;1.20;1.10;;;;;;;34.53;31.08;160272.36;1629655;88;21213;-85
2021/05/13 00:58:53;;;;;;;1.57;1.47;;;;;;;34.55;31.10;160277.72;1629858;87;21773;-85
2021/05/13 01:01:36;;;;;;;3.80;1.30;;;;;;;34.55;31.15;160276.34;1608038;88;21249;-87
2021/05/13 01:03:59;;;;;;;1.85;1.10;;;;;;;34.52;31.17;160269.67;1628950;88;21396;-84
2021/05/13 01:06:32;;;;;;;1.20;1.10;;;;;;;34.52;31.18;160269.67;1629626;87;21336;-85
2021/05/13 01:09:09;;;;;;;3.17;1.20;;;;;;;34.48;31.23;160259.02;1629779;88;21352;-85
2021/05/13 01:11:43;;;;;;;2.02;1.40;;;;;;;34.50;31.22;160264.31;1629705;86;21273;-84
2021/05/13 01:14:23;;;;;;;2.15;1.20;;;;;;;34.47;31.24;160256.34;1629874;88;21840;-86
2021/05/13 01:17:05;;;;;;;1.80;1.10;;;;;;;34.48;31.28;160259.02;1629698;88;21501;-87
2021/05/13 01:19:51;;;;;;;2.35;0.98;;;;;;;34.47;31.29;160254.97;1610623;86;21262;-87
2021/05/13 01:22:25;;;;;;;1.25;1.10;;;;;;;34.50;31.25;160263.02;1629775;88;21960;-87
2021/05/13 01:24:58;;;;;;;2.02;1.30;;;;;;;34.45;31.30;160249.63;1629687;87;21245;-85
2021/05/13 01:27:30;;;;;;;1.55;0.90;;;;;;;34.44;31.32;160248.31;1629760;88;21372;-87
2021/05/13 01:30:03;;;;;;;1.35;1.10;;;;;;;34.41;31.34;160240.28;1629928;88;21213;-85
2021/05/13 01:32:36;;;;;;;1.35;1.00;;;;;;;34.43;31.36;160244.31;1629786;88;21221;-86
2021/05/13 01:35:09;;;;;;;1.42;1.02;;;;;;;34.36;31.50;160226.94;1629683;86;21376;-85
2021/05/13 01:37:42;;;;;;;1.47;1.30;;;;;;;34.37;31.56;160229.63;1629653;87;21407;-86
2021/05/13 01:40:15;;;;;;;1.25;1.10;;;;;;;34.29;31.64;160206.89;1608413;88;21356;-84
2021/05/13 01:42:49;;;;;;;3.33;1.10;;;;;;;34.26;31.66;160198.86;1629771;88;21840;-85
2021/05/13 01:45:21;;;;;;;1.65;0.95;;;;;;;34.21;31.73;160186.84;1608835;88;21214;-85
2021/05/13 01:48:01;;;;;;;1.95;1.30;;;;;;;34.26;31.71;160200.17;1629811;88;21786;-85
2021/05/13 01:50:32;;;;;;;2.02;1.17;;;;;;;34.17;31.80;160174.83;1629661;87;21302;-86
2021/05/13 01:53:06;;;;;;;1.75;1.05;;;;;;;34.21;31.85;160186.84;1629640;87;21363;-84
2021/05/13 01:55:40;;;;;;;1.10;1.00;;;;;;;34.16;31.92;160173.45;1629736;88;21380;-85
2021/05/13 01:58:12;;;;;;;0.98;0.90;;;;;;;34.21;31.92;160185.47;1629810;87;21363;-84
2021/05/13 02:00:45;;;;;;;1.65;1.05;;;;;;;34.24;31.91;160193.50;1629816;88;21234;-86
2021/05/13 02:03:18;;;;;;;1.80;1.15;;;;;;;34.31;31.82;160213.56;1629801;88;21258;-85
2021/05/13 02:05:50;;;;;;;2.77;1.30;;;;;;;34.30;31.80;160210.88;1629659;88;21258;-85
2021/05/13 02:08:23;;;;;;;1.50;1.32;;;;;;;34.22;31.86;160189.52;1629753;88;21210;-85
2021/05/13 02:10:56;;;;;;;1.82;1.40;;;;;;;34.22;31.90;160188.16;1629693;86;21245;-86
2021/05/13 02:13:28;;;;;;;2.17;1.40;;;;;;;34.27;31.87;160202.84;1629677;88;21270;-86
2021/05/13 02:16:01;;;;;;;2.40;1.80;;;;;;;34.30;31.81;160210.88;1629607;87;21237;-86
2021/05/13 02:18:35;;;;;;;2.33;1.37;;;;;;;34.24;31.86;160193.50;1629625;88;21337;-87
2021/05/13 02:21:07;;;;;;;2.75;1.67;;;;;;;34.23;31.88;160190.83;1629620;86;21194;-85
2021/05/13 02:23:42;;;;;;;4.67;1.47;;;;;;;34.24;31.88;160194.87;1629693;87;21438;-86
2021/05/13 02:26:15;;;;;;;2.30;1.87;;;;;;;34.18;31.94;160178.81;1584639;90;21455;-85
2021/05/13 02:28:48;;;;;;;2.20;1.60;;;;;;;34.14;32.02;160168.09;1569733;91;22337;-85
2021/05/13 02:31:21;;;;;;;2.27;1.50;;;;;;;34.12;32.06;160160.13;1549670;91;21286;-85
2021/05/13 02:33:53;;;;;;;2.45;1.40;;;;;;;34.14;32.05;160166.80;1568405;91;21302;-85
2021/05/13 02:36:25;;;;;;;2.35;1.67;;;;;;;34.08;32.08;160149.38;1586332;90;21980;-85
2021/05/13 02:38:57;;;;;;;2.90;1.60;;;;;;;34.09;32.10;160152.09;1629745;88;21206;-85
2021/05/13 02:41:30;;;;;;;2.00;1.47;;;;;;;34.07;32.11;160146.69;1629788;88;21231;-85
2021/05/13 02:44:03;;;;;;;2.55;2.00;;;;;;;34.04;32.12;160140.03;1629948;88;21345;-85
2021/05/13 02:46:35;;;;;;;2.52;1.80;;;;;;;33.98;32.16;160122.66;1629845;88;21436;-85
2021/05/13 02:49:07;;;;;;;2.08;1.72;;;;;;;33.91;32.22;160105.28;1629882;88;21282;-86
2021/05/13 02:51:40;;;;;;;2.52;2.00;;;;;;;33.92;32.23;160106.59;1623111;87;21341;-84
2021/05/13 02:54:12;;;;;;;4.92;2.25;;;;;;;33.98;32.15;160122.66;1621364;87;21897;-88
2021/05/13 02:56:45;;;;;;;3.35;1.57;;;;;;;33.98;32.18;160122.66;1621308;88;21388;-88
2021/05/13 02:59:18;;;;;;;2.77;2.35;;;;;;;33.98;32.16;160123.97;1621296;88;21227;-85
2021/05/13 03:01:51;;;;;;;4.30;2.10;;;;;;;33.93;32.21;160109.27;1621343;87;21713;-84
2021/05/13 03:04:23;;;;;;;2.55;1.80;;;;;;;33.91;32.21;160103.97;1615024;88;21225;-85
2021/05/13 03:06:56;;;;;;;3.45;2.20;;;;;;;33.93;32.24;160109.27;1624830;86;21264;-85
2021/05/13 03:09:29;;;;;;;2.90;1.90;;;;;;;33.89;32.30;160099.92;1644954;87;21204;-84
2021/05/13 03:12:01;;;;;;;2.30;2.00;;;;;;;33.88;32.33;160097.25;1645802;87;21229;-85
2021/05/13 03:14:34;;;;;;;2.50;2.10;;;;;;;33.88;32.33;160097.25;1647179;87;21309;-85
2021/05/13 03:17:07;;;;;;;3.47;2.50;;;;;;;33.86;32.40;160091.91;1647199;87;21261;-85
2021/05/13 03:22:15;;;;;;;3.62;2.40;;;;;;;33.91;32.39;160103.97;1641586;87;21441;-85
2021/05/13 03:24:53;;;;;;;2.20;1.92;;;;;;;33.95;32.43;160114.63;1629645;86;21258;-87
2021/05/13 03:30:00;;;;;;;3.10;2.10;;;;;;;33.90;32.51;160101.30;1631519;86;21907;-85
2021/05/13 03:32:32;;;;;;;3.70;2.65;;;;;;;33.86;32.54;160091.91;1629733;87;21748;-84
2021/05/13 03:35:07;;;;;;;3.75;2.40;;;;;;;33.84;32.62;160086.59;1629528;88;21242;-86
2021/05/13 03:37:39;;;;;;;2.90;2.45;;;;;;;33.83;32.63;160083.92;1629668;87;21428;-88
2021/05/13 03:40:12;;;;;;;2.42;1.98;;;;;;;33.83;32.69;160082.56;1633542;86;21922;-87
2021/05/13 03:42:45;;;;;;;3.65;2.05;;;;;;;33.87;32.71;160093.27;1646963;87;21375;-91
2021/05/13 03:45:17;;;;;;;5.12;2.70;;;;;;;33.88;32.71;160095.94;1605298;89;21230;-88
2021/05/13 03:47:50;;;;;;;2.55;2.10;;;;;;;33.89;32.70;160099.92;1618505;88;21713;-87
2021/05/13 03:50:22;;;;;;;3.95;2.30;;;;;;;33.85;32.74;160087.91;1633066;86;21367;-86
2021/05/13 03:52:55;;;;;;;4.15;2.60;;;;;;;33.87;32.77;160093.27;1658433;86;21264;-87
2021/05/13 03:55:27;;;;;;;3.10;2.00;;;;;;;33.91;32.78;160105.28;1606638;89;21225;-85
2021/05/13 03:58:01;;;;;;;7.90;3.05;;;;;;;33.97;32.81;160119.97;1588102;89;21246;-89
2021/05/13 04:03:24;;;;;;;3.75;2.17;;;;;;;34.15;32.68;160169.47;1609007;89;21259;-87
2021/05/13 04:05:56;;;;;;;4.33;2.55;;;;;;;34.18;32.67;160177.50;1598011;88;21468;-89
2021/05/13 04:08:29;;;;;;;2.77;2.10;;;;;;;34.21;32.68;160186.84;1595755;88;21277;-86
2021/05/13 04:11:01;;;;;;;4.95;2.45;;;;;;;34.25;32.66;160196.19;1596271;88;21246;-93
2021/05/13 04:13:35;;;;;;;2.27;1.98;;;;;;;34.22;32.74;160189.52;1596278;88;21459;-87
2021/05/13 04:16:08;;;;;;;2.83;2.15;;;;;;;34.19;32.81;160181.48;1596892;88;21345;-87
2021/05/13 04:18:41;;;;;;;6.10;2.25;;;;;;;34.22;32.89;160189.52;1597555;88;21242;-88
2021/05/13 04:21:14;;;;;;;2.70;2.08;;;;;;;34.19;32.90;160181.48;1596466;88;21399;-87
2021/05/13 04:23:46;;;;;;;2.70;2.17;;;;;;;34.21;32.91;160186.84;1598946;88;21416;-86
2021/05/13 04:26:19;;;;;;;2.37;1.90;;;;;;;34.19;32.93;160181.48;1596250;88;21400;-88
2021/05/13 04:28:52;;;;;;;3.10;2.30;;;;;;;34.24;32.91;160193.50;1597255;88;21252;-87
2021/05/13 04:31:24;;;;;;;2.25;2.05;;;;;;;34.21;32.94;160185.47;1596690;88;21781;-88
2021/05/13 04:33:57;;;;;;;3.92;2.12;;;;;;;34.24;32.85;160194.87;1597288;88;21793;-88
2021/05/13 04:36:30;;;;;;;2.45;1.98;;;;;;;34.24;32.96;160194.87;1598631;87;21269;-83
2021/05/13 04:39:03;;;;;;;2.70;1.98;;;;;;;34.23;32.99;160192.20;1596903;87;21792;-85
2021/05/13 04:41:36;;;;;;;2.37;1.75;;;;;;;34.26;32.97;160200.17;1597340;88;21424;-87
2021/05/13 04:44:09;;;;;;;2.27;2.00;;;;;;;34.32;32.95;160214.88;1599626;88;21211;-86
2021/05/13 04:46:42;;;;;;;2.35;2.05;;;;;;;34.26;32.94;160200.17;1597637;88;21403;-88
2021/05/13 04:49:19;;;;;;;2.95;2.47;;;;;;;34.33;32.85;160217.55;1597763;88;21869;-86
2021/05/13 04:51:51;;;;;;;2.30;1.90;;;;;;;34.41;32.79;160238.97;1599126;88;21400;-85
2021/05/13 04:54:26;;;;;;;2.75;1.95;;;;;;;34.48;32.78;160259.02;1584144;89;21276;-83
2021/05/13 04:57:01;;;;;;;3.40;1.55;;;;;;;34.56;32.70;160279.03;1603196;88;21911;-85
2021/05/13 04:59:33;;;;;;;2.40;1.82;;;;;;;34.44;32.83;160246.95;1602729;88;21329;-87
2021/05/13 05:02:29;;;;;;;3.00;1.67;;;;;;;34.70;32.44;160317.88;1604278;88;21307;-84
2021/05/13 05:05:07;;;;;;;3.35;1.90;;;;;;;34.77;32.28;160335.25;1602305;88;21258;-84
2021/05/13 05:07:39;;;;;;;4.03;2.08;;;;;;;34.76;32.23;160332.58;1600575;88;21907;-85
2021/05/13 05:10:12;;;;;;;2.52;1.90;;;;;;;34.80;32.16;160344.61;1601899;88;21412;-84
2021/05/13 05:12:45;;;;;;;3.85;2.02;;;;;;;34.85;32.07;160356.62;1601904;88;21315;-85
2021/05/13 05:15:18;;;;;;;4.15;2.30;;;;;;;34.88;31.92;160365.97;1604565;88;21352;-84
2021/05/13 05:17:51;;;;;;;3.10;2.10;;;;;;;34.89;31.85;160367.34;1621390;88;21246;-84
2021/05/13 05:20:23;;;;;;;3.55;2.22;;;;;;;34.94;31.80;160380.69;1621263;88;21336;-84
2021/05/13 05:22:55;;;;;;;3.70;2.20;;;;;;;34.95;31.82;160384.72;1621061;87;21408;-84
2021/05/13 05:25:28;;;;;;;3.85;1.95;;;;;;;35.01;31.60;160399.42;1606832;88;21779;-84
2021/05/13 05:28:00;;;;;;;5.90;2.60;;;;;;;35.00;31.46;160398.06;1621434;88;21717;-84
2021/05/13 05:30:33;;;;;;;3.12;1.77;;;;;;;35.03;31.31;160404.73;1621255;87;21258;-84
2021/05/13 05:33:07;;;;;;;2.40;1.90;;;;;;;35.12;31.22;160428.89;1621195;88;21437;-84
2021/05/13 05:35:40;;;;;;;4.10;2.00;;;;;;;35.13;31.10;160432.88;1621264;88;21413;-85
2021/05/13 05:38:12;;;;;;;1.90;1.65;;;;;;;35.04;31.06;160407.41;1621438;88;21824;-84
2021/05/13 05:40:45;;;;;;;2.80;1.80;;;;;;;34.98;30.91;160392.70;1621505;88;21730;-88
2021/05/13 05:43:17;;;;;;;1.95;1.52;;;;;;;35.01;30.78;160399.42;1621163;87;21388;-84
2021/05/13 05:45:49;;;;;;;1.70;1.47;;;;;;;35.02;30.65;160403.42;1621496;87;21218;-84
2021/05/13 05:48:21;;;;;;;1.65;1.55;;;;;;;35.12;30.44;160428.89;1621574;88;21710;-84
2021/05/13 05:50:54;;;;;;;2.08;1.77;;;;;;;35.15;30.25;160439.56;1621119;88;21239;-84
2021/05/13 05:53:26;;;;;;;1.95;1.52;;;;;;;35.18;30.13;160446.28;1621265;87;21290;-84
2021/05/13 05:55:59;;;;;;;1.65;1.50;;;;;;;35.25;29.98;160466.28;1621309;88;21697;-84
2021/05/13 05:58:31;;;;;;;2.08;1.72;;;;;;;35.16;29.92;160442.23;1621243;88;21397;-84
2021/05/13 06:01:04;;;;;;;9.00;2.87;;;;;;;35.17;29.89;160443.59;1621213;88;21381;-83
2021/05/13 06:03:36;;;;;;;2.35;1.55;;;;;;;34.91;30.14;160374.02;1621293;87;21332;-84
2021/05/13 06:06:08;;;;;;;2.87;1.40;;;;;;;35.27;29.74;160470.34;1581163;87;21246;-85
2021/05/13 06:08:41;;;;;;;2.55;1.30;;;;;;;35.35;29.70;160491.72;1606755;88;21373;-85
2021/05/13 06:11:13;;;;;;;1.72;1.40;;;;;;;35.34;29.77;160490.41;1621083;88;21352;-85
2021/05/13 06:13:46;;;;;;;2.33;1.40;;;;;;;35.38;29.82;160501.06;1621173;88;21329;-84
2021/05/13 06:16:18;;;;;;;2.65;1.55;;;;;;;35.40;29.92;160506.42;1621300;87;21349;-85
2021/05/13 06:18:57;;;;;;;2.08;1.32;;;;;;;35.45;29.76;160519.81;1621461;87;21255;-84
2021/05/13 06:21:29;;;;;;;1.75;1.30;;;;;;;35.52;29.71;160537.27;1621360;88;21266;-84
2021/05/13 06:24:07;;;;;;;1.17;1.07;;;;;;;35.54;29.41;160542.56;1621236;87;21222;-84
2021/05/13 06:26:36;;;;;;;2.40;1.50;;;;;;;35.60;29.21;160558.64;1621266;87;21211;-85
2021/05/13 06:29:09;;;;;;;1.50;1.15;;;;;;;35.63;29.08;160566.69;1621577;88;21214;-84
2021/05/13 06:31:41;;;;;;;1.60;1.35;;;;;;;35.63;29.04;160568.00;1622695;87;21242;-84
2021/05/13 06:34:13;;;;;;;1.32;0.98;;;;;;;35.70;29.01;160585.39;1603895;89;21282;-84
2021/05/13 06:36:45;;;;;;;1.80;1.05;;;;;;;35.72;28.85;160590.75;1624807;88;21200;-85
2021/05/13 06:39:18;;;;;;;1.35;1.25;;;;;;;35.80;28.79;160613.50;1604075;88;21845;-84
2021/05/13 06:41:50;;;;;;;2.58;1.20;;;;;;;35.85;28.66;160625.53;1621206;88;21356;-84
2021/05/13 06:44:22;;;;;;;1.07;0.98;;;;;;;35.90;28.57;160640.23;1621334;88;21249;-85
2021/05/13 06:46:56;;;;;;;1.80;1.10;;;;;;;35.87;28.56;160630.89;1621201;87;21263;-84
2021/05/13 06:49:30;;;;;;;1.20;1.00;;;;;;;36.02;28.45;160671.03;1601730;88;21361;-85
2021/05/13 06:52:02;;;;;;;1.92;1.00;;;;;;;36.04;28.43;160676.41;1621397;88;21249;-84
2021/05/13 06:54:35;;;;;;;1.05;0.95;;;;;;;35.95;28.38;160652.28;1621326;87;21225;-85
2021/05/13 06:57:07;;;;;;;0.85;0.85;;;;;;;35.98;28.19;160661.62;1621220;88;21325;-85
2021/05/13 06:59:47;;;;;;;2.02;0.93;;;;;;;36.02;28.18;160672.41;1621265;88;21219;-84
2021/05/13 07:02:14;;;;;;;1.00;0.93;;;;;;;36.09;28.05;160691.11;1621203;87;21416;-84
2021/05/13 07:04:47;;;;;;;0.88;0.80;;;;;;;36.18;28.00;160715.19;1621447;87;21774;-84
2021/05/13 07:07:19;;;;;;;1.62;0.90;;;;;;;36.25;27.89;160733.95;1621263;88;21365;-84
2021/05/13 07:09:52;;;;;;;1.22;1.00;;;;;;;36.26;27.87;160737.94;1621308;87;21325;-85
2021/05/13 07:12:25;;;;;;;1.15;1.02;;;;;;;36.30;27.90;160747.30;1621774;87;21270;-85
2021/05/13 07:14:59;;;;;;;3.12;1.00;;;;;;;36.40;27.92;160774.11;1621293;87;21327;-84
2021/05/13 07:17:31;;;;;;;1.30;1.10;;;;;;;36.44;28.06;160786.19;1621446;88;21246;-84
2021/05/13 07:20:04;;;;;;;2.60;1.12;;;;;;;36.57;28.07;160821.00;1621360;88;21222;-85
2021/05/13 07:22:36;;;;;;;2.52;1.20;;;;;;;36.57;27.98;160821.00;1621423;88;21697;-85
2021/05/13 07:25:09;;;;;;;1.70;0.95;;;;;;;36.61;28.13;160831.67;1621157;87;21384;-84
2021/05/13 07:27:43;;;;;;;2.60;0.98;;;;;;;36.70;28.28;160854.44;1621471;88;21217;-84
2021/05/13 07:30:16;;;;;;;2.27;1.20;;;;;;;36.85;28.18;160895.92;1621323;88;21223;-85
2021/05/13 07:32:48;;;;;;;4.50;1.30;;;;;;;36.91;28.21;160912.06;1621331;88;21205;-84
2021/05/13 07:35:21;;;;;;;2.65;1.30;;;;;;;36.89;28.08;160906.66;1621442;88;21765;-84
2021/05/13 07:37:53;;;;;;;1.90;1.20;;;;;;;37.02;27.90;160941.52;1621166;88;21436;-85
2021/05/13 07:40:27;;;;;;;4.87;1.55;;;;;;;37.01;27.85;160938.83;1621653;88;21218;-84
2021/05/13 07:43:00;;;;;;;5.60;1.55;;;;;;;37.05;27.60;160949.50;1621262;87;21400;-84
2021/05/13 07:45:33;;;;;;;3.35;1.40;;;;;;;37.10;27.48;160962.92;1621388;87;21741;-85
2021/05/13 07:48:06;;;;;;;5.10;1.32;;;;;;;37.10;27.41;160964.23;1621425;87;21246;-85
2021/05/13 07:50:39;;;;;;;3.35;1.32;;;;;;;37.09;27.21;160961.56;1621414;88;21305;-85
2021/05/13 07:53:11;;;;;;;1.90;1.20;;;;;;;37.01;27.20;160938.83;1603675;89;21220;-85
2021/05/13 07:55:43;;;;;;;1.00;0.90;;;;;;;37.12;26.98;160969.59;1603778;89;21456;-84
2021/05/13 07:58:16;;;;;;;1.52;0.90;;;;;;;37.07;26.90;160956.25;1609787;89;21810;-85
2021/05/13 08:00:48;;;;;;;1.30;1.15;;;;;;;37.05;26.80;160949.50;1638072;86;21482;-85
2021/05/13 08:03:20;;;;;;;2.60;1.10;;;;;;;37.10;26.73;160962.92;1613867;89;21356;-85
2021/05/13 08:05:53;;;;;;;1.00;0.90;;;;;;;37.08;26.77;160958.92;1613954;88;21948;-85
2021/05/13 08:08:25;;;;;;;1.40;1.20;;;;;;;37.11;26.74;160965.59;1613772;89;21423;-84
2021/05/13 08:10:58;;;;;;;1.55;0.93;;;;;;;37.16;26.68;160978.97;1646301;86;21719;-85
2021/05/13 08:13:31;;;;;;;1.47;1.10;;;;;;;37.16;26.65;160980.33;1658548;86;21938;-84
2021/05/13 08:16:03;;;;;;;1.80;1.00;;;;;;;37.09;26.71;160960.23;1658409;85;21216;-84
2021/05/13 08:18:36;;;;;;;1.72;0.90;;;;;;;37.12;26.64;160969.59;1658458;86;21390;-84
2021/05/13 08:21:08;;;;;;;1.75;0.93;;;;;;;37.14;26.63;160974.97;1658356;86;21232;-84
2021/05/13 08:23:41;;;;;;;1.30;0.90;;;;;;;37.15;26.52;160976.33;1658352;86;21480;-85
2021/05/13 08:26:13;;;;;;;1.35;0.78;;;;;;;37.17;26.44;160981.64;1612331;89;21242;-85
2021/05/13 08:28:45;;;;;;;1.12;0.90;;;;;;;37.12;26.46;160968.28;1629518;88;21298;-88
2021/05/13 08:31:17;;;;;;;4.08;1.52;;;;;;;37.15;26.43;160976.33;1612354;88;21210;-85
2021/05/13 08:33:50;;;;;;;3.17;1.10;;;;;;;37.14;26.26;160974.97;1629724;87;21741;-84
2021/05/13 08:36:22;;;;;;;2.55;1.02;;;;;;;37.19;26.37;160987.00;1612307;88;21253;-84
2021/05/13 08:38:55;;;;;;;5.72;2.58;;;;;;;37.15;26.34;160976.33;1629947;87;21265;-84
2021/05/13 08:41:27;;;;;;;2.47;1.55;;;;;;;37.29;26.37;161013.78;1658653;85;21281;-84
2021/05/13 08:43:59;;;;;;;3.58;1.02;;;;;;;37.33;26.62;161024.50;1658439;85;21343;-85
2021/05/13 08:46:32;;;;;;;1.67;1.10;;;;;;;37.39;26.58;161040.59;1658288;85;21763;-85
2021/05/13 08:49:04;;;;;;;2.05;1.10;;;;;;;37.42;26.49;161050.03;1658304;86;21415;-84
2021/05/13 08:51:39;;;;;;;1.07;0.98;;;;;;;37.44;26.44;161054.02;1612400;89;21209;-85
2021/05/13 08:54:11;;;;;;;2.22;1.00;;;;;;;37.57;26.42;161088.84;1629774;87;21372;-84
2021/05/13 08:56:43;;;;;;;1.27;1.10;;;;;;;37.62;26.43;161102.20;1612402;87;21926;-86
2021/05/13 08:59:16;;;;;;;2.00;1.10;;;;;;;37.63;26.28;161106.25;1622371;87;21194;-84
2021/05/13 09:01:59;;;;;;;1.20;1.10;;;;;;;37.68;26.19;161119.63;1603803;89;21208;-84
2021/05/13 09:04:51;;;;;;;1.60;1.10;;;;;;;37.66;25.96;161112.94;1621259;88;21222;-85
2021/05/13 09:07:28;;;;;;;1.25;1.00;;;;;;;37.71;25.96;161126.34;1621286;87;21195;-84
2021/05/13 09:10:09;;;;;;;1.72;1.20;;;;;;;37.70;25.90;161123.67;1621216;88;21385;-84
2021/05/13 09:12:47;;;;;;;1.12;1.02;;;;;;;37.74;25.83;161135.72;1621244;88;21409;-85
2021/05/13 09:15:27;;;;;;;1.25;0.95;;;;;;;37.89;25.74;161175.97;1621304;88;21247;-84
2021/05/13 09:18:03;;;;;;;5.40;1.40;;;;;;;37.90;25.70;161177.28;1602076;88;21380;-85
2021/05/13 09:20:41;;;;;;;4.67;1.50;;;;;;;38.02;25.71;161212.13;1621262;88;21773;-84
2021/05/13 09:23:23;;;;;;;2.02;1.20;;;;;;;38.04;25.65;161216.13;1621308;88;21384;-84
2021/05/13 09:26:16;;;;;;;2.15;1.52;;;;;;;38.08;25.63;161228.17;1621532;88;21801;-85
2021/05/13 09:28:51;;;;;;;1.30;1.20;;;;;;;38.13;25.45;161240.28;1621248;87;21396;-85
2021/05/13 09:31:39;;;;;;;2.62;1.50;;;;;;;38.06;25.60;161222.86;1596274;88;21396;-86
2021/05/13 09:34:12;;;;;;;1.90;1.42;;;;;;;38.10;25.51;161232.22;1621182;88;21356;-84
2021/05/13 09:36:44;;;;;;;2.10;1.40;;;;;;;38.11;25.60;161236.22;1621257;87;21380;-85
2021/05/13 09:39:27;;;;;;;1.60;1.30;;;;;;;38.08;25.51;161228.17;1621247;88;21812;-86
2021/05/13 09:42:05;;;;;;;2.90;1.30;;;;;;;38.17;25.47;161252.33;1621280;87;21717;-84
2021/05/13 09:44:41;;;;;;;1.50;1.40;;;;;;;38.15;25.40;161246.97;1621291;87;21258;-85
2021/05/13 09:47:27;;;;;;;2.10;1.32;;;;;;;38.17;25.27;161252.33;1621238;87;21191;-84
2021/05/13 09:50:09;;;;;;;3.45;1.20;;;;;;;38.20;25.16;161259.02;1603475;89;21729;-85
2021/05/13 09:52:51;;;;;;;7.75;2.55;;;;;;;38.19;25.09;161257.70;1597044;88;21375;-84
2021/05/13 09:55:35;;;;;;;3.02;1.45;;;;;;;38.21;25.13;161263.02;1603816;89;21399;-85
2021/05/13 09:58:15;;;;;;;1.95;1.27;;;;;;;38.25;25.14;161272.48;1619876;88;21437;-85
2021/05/13 10:00:48;;;;;;;1.45;1.35;;;;;;;38.32;25.04;161291.22;1621136;87;21473;-84
2021/05/13 10:03:24;;;;;;;1.37;1.27;;;;;;;38.32;25.04;161292.53;1621275;88;21388;-85
2021/05/13 10:05:57;;;;;;;1.55;1.20;;;;;;;38.39;24.87;161309.97;1621251;88;21380;-85
2021/05/13 10:08:29;;;;;;;1.98;1.62;;;;;;;38.51;24.98;161343.50;1578857;90;21282;-84
2021/05/13 10:11:01;;;;;;;1.20;1.10;;;;;;;38.58;24.98;161360.91;1578550;90;21236;-84
2021/05/13 10:13:34;;;;;;;1.20;1.10;;;;;;;38.64;25.01;161376.97;1578639;90;21203;-84
2021/05/13 10:16:06;;;;;;;1.40;1.30;;;;;;;38.71;25.01;161397.13;1578499;90;21309;-85
2021/05/13 10:18:47;;;;;;;3.80;1.40;;;;;;;38.82;25.14;161425.30;1578632;90;21224;-84
2021/05/13 10:21:22;;;;;;;1.60;1.20;;;;;;;38.88;25.06;161442.73;1578887;90;21309;-84
2021/05/13 10:23:56;;;;;;;1.72;1.10;;;;;;;38.99;24.93;161473.53;1610164;88;21714;-85
2021/05/13 10:26:37;;;;;;;1.37;1.20;;;;;;;39.09;24.87;161500.39;1601024;87;21391;-85
2021/05/13 10:29:26;;;;;;;1.07;0.98;;;;;;;39.20;24.81;161529.88;1621459;88;21737;-85
2021/05/13 10:32:16;;;;;;;;;;;;;;;39.27;24.73;161548.69;1622981;87;21803;-84
2021/05/13 10:35:02;;;;;;;1.17;1.00;;;;;;;39.24;24.85;161540.63;1621075;87;20314;-84
2021/05/13 10:37:39;;;;;;;1.37;1.12;;;;;;;39.31;24.78;161559.38;1621266;88;21388;-85
2021/05/13 10:40:31;;;;;;;1.67;1.02;;;;;;;39.43;24.68;161591.55;1621273;88;22331;-84
2021/05/13 10:43:07;;;;;;;2.33;0.98;;;;;;;39.50;24.70;161610.41;1620983;88;21396;-85
2021/05/13 10:45:46;;;;;;;0.95;0.90;;;;;;;39.43;24.32;161591.55;1621186;88;21352;-84
2021/05/13 10:48:27;;;;;;;1.70;1.20;;;;;;;39.47;24.15;161602.30;1621210;87;21203;-85
2021/05/13 10:51:03;;;;;;;;;;;;;;;39.47;23.93;161600.98;1623771;88;21687;-85
2021/05/13 10:53:48;;;;;;;2.47;1.00;;;;;;;39.46;23.94;161599.61;1578599;89;20627;-84
2021/05/13 10:56:32;;;;;;;2.05;1.10;;;;;;;39.45;24.01;161595.61;1578187;90;21399;-84
2021/05/13 10:59:10;;;;;;;3.20;1.30;;;;;;;39.43;24.02;161591.55;1597830;88;21286;-84
2021/05/13 11:01:53;;;;;;;1.20;1.10;;;;;;;39.44;24.06;161594.23;1621144;88;21444;-85
2021/05/13 11:04:30;;;;;;;2.45;1.07;;;;;;;39.44;24.15;161592.92;1621453;88;21388;-84
2021/05/13 11:07:15;;;;;;;1.72;1.02;;;;;;;39.42;24.08;161588.86;1621364;87;21233;-85
2021/05/13 11:09:54;;;;;;;1.45;1.05;;;;;;;39.38;24.14;161576.81;1621266;88;21206;-84
2021/05/13 11:12:29;;;;;;;1.72;1.07;;;;;;;39.40;24.06;161582.17;1621299;87;21368;-85
2021/05/13 11:20:40;;;;;;;1.30;1.00;;;;;;;39.41;24.23;161584.86;1582336;89;21213;-85
2021/05/13 11:23:24;;;;;;;1.40;0.85;;;;;;;39.44;24.47;161594.23;1603743;88;21320;-85
2021/05/13 11:26:02;;;;;;;1.40;1.10;;;;;;;39.55;24.41;161622.47;1603703;89;21257;-84
2021/05/13 11:28:40;;;;;;;1.10;0.90;;;;;;;39.61;24.17;161639.91;1617631;88;21849;-84
2021/05/13 11:31:20;;;;;;;3.25;1.30;;;;;;;39.67;24.21;161654.66;1621302;87;21892;-85
2021/05/13 11:33:59;;;;;;;3.20;0.93;;;;;;;39.76;24.11;161680.09;1621802;88;21786;-84
2021/05/13 11:36:39;;;;;;;1.98;1.30;;;;;;;39.74;23.97;161673.41;1621276;87;21392;-84
2021/05/13 11:39:13;;;;;;;1.23;1.10;;;;;;;39.76;23.85;161678.78;1621501;88;21383;-85
2021/05/13 11:41:49;;;;;;;1.52;1.02;;;;;;;39.77;23.73;161681.47;1621284;88;21581;-84
2021/05/13 11:44:22;;;;;;;3.58;1.00;;;;;;;39.78;23.69;161685.47;1621324;88;21713;-85
2021/05/13 11:46:54;;;;;;;1.27;1.17;;;;;;;39.79;23.75;161686.84;1621283;88;21215;-84
2021/05/13 11:49:33;;;;;;;3.08;1.00;;;;;;;39.72;23.72;161668.03;1621289;88;21345;-84
2021/05/13 11:52:05;;;;;;;5.17;1.00;;;;;;;39.70;23.76;161664.03;1621179;88;21388;-84
2021/05/13 11:54:38;;;;;;;2.30;1.10;;;;;;;39.65;23.75;161649.28;1621396;88;21196;-84
2021/05/13 11:57:11;;;;;;;1.60;1.00;;;;;;;39.61;23.76;161638.53;1621315;87;21226;-84
2021/05/13 11:59:50;;;;;;;2.17;1.10;;;;;;;39.51;23.81;161611.72;1621350;88;21737;-84
2021/05/13 12:02:22;;;;;;;1.57;1.10;;;;;;;39.45;23.85;161596.92;1620967;87;21407;-84
2021/05/13 12:05:04;;;;;;;3.20;1.02;;;;;;;39.44;23.94;161594.23;1621388;88;21260;-85
2021/05/13 12:07:36;;;;;;;1.47;1.10;;;;;;;39.41;24.09;161586.19;1621272;88;21345;-85
2021/05/13 12:10:10;;;;;;;2.40;1.25;;;;;;;39.44;24.13;161592.92;1621271;88;21345;-84
2021/05/13 12:12:42;;;;;;;1.87;1.10;;;;;;;39.40;24.15;161582.17;1621176;88;21249;-85